Cincinnati, Ohio
Traffic Map
Current Weather Conditions
Cincinnati, Ohio
Clear
Clear
40°
Feels Like: 34°
Wind Chill: 34° Ceiling: Unl
Heat Index: 40° Visibility: 10mi
Dew Point: 34° Wind: 8mph
Humidity: 79% Direction: 60° (ENE)
Pressure: 29.89in Gusts: 0mph
Raw Report DataKLUK 060553Z AUTO 06007KT 10SM CLR 04/01 A2989 RMK AO2 SLP125 T00440011 10044 20022 58031
Traffic Incident Summary
Active as of:
Severity:
Category:
InformationThere was an issue retrieving the traffic information for this location. Please try a different location or try again shortly.
Advertisements
Track Severe Weather on mobile